createdAt,value
2018-05-14T00:01:56.737Z,99596
2018-05-14T00:04:33.945Z,99599
2018-05-14T00:07:11.025Z,99596
2018-05-14T00:09:47.656Z,99594
2018-05-14T00:12:24.777Z,99595
2018-05-14T00:15:01.554Z,99597
2018-05-14T00:17:38.580Z,99590
2018-05-14T00:20:17.235Z,99595
2018-05-14T00:22:54.665Z,99589
2018-05-14T00:25:31.637Z,99593
2018-05-14T00:28:08.365Z,99595
2018-05-14T00:30:45.493Z,99597
2018-05-14T00:33:22.627Z,99596
2018-05-14T00:35:59.929Z,99601
2018-05-14T00:38:39.309Z,99597
2018-05-14T00:41:16.931Z,99597
2018-05-14T00:43:55.477Z,99596
2018-05-14T00:46:34.716Z,99597
2018-05-14T00:49:13.086Z,99595
2018-05-14T00:51:50.659Z,99596
2018-05-14T00:54:27.801Z,99594
2018-05-14T00:57:04.911Z,99594
2018-05-14T00:59:41.175Z,99593
2018-05-14T01:02:19.081Z,99594
2018-05-14T01:04:55.833Z,99593
2018-05-14T01:07:32.245Z,99589
2018-05-14T01:10:10.161Z,99593
2018-05-14T01:12:47.605Z,99592
2018-05-14T01:15:25.378Z,99594
2018-05-14T01:18:03.464Z,99588
2018-05-14T01:20:41.364Z,99592
2018-05-14T01:23:18.778Z,99587
2018-05-14T01:25:56.350Z,99592
2018-05-14T01:28:32.773Z,99595
2018-05-14T01:31:11.039Z,99590
2018-05-14T01:33:48.112Z,99590
2018-05-14T01:36:25.498Z,99594
2018-05-14T01:39:02.014Z,99590
2018-05-14T01:41:39.685Z,99595
2018-05-14T01:44:17.053Z,99598
2018-05-14T01:46:55.581Z,99599
2018-05-14T01:49:33.157Z,99598
2018-05-14T01:52:11.372Z,99602
2018-05-14T01:54:49.852Z,99603
2018-05-14T01:57:28.112Z,99602
2018-05-14T02:00:03.745Z,99606
2018-05-14T02:02:40.071Z,99600
2018-05-14T02:05:17.827Z,99604
2018-05-14T02:07:56.010Z,99602
2018-05-14T02:10:32.994Z,99595
2018-05-14T02:13:09.519Z,99597
2018-05-14T02:15:46.157Z,99601
2018-05-14T02:18:23.076Z,99597
2018-05-14T02:21:01.992Z,99596
2018-05-14T02:23:39.175Z,99597
2018-05-14T02:26:17.196Z,99601
2018-05-14T02:28:54.303Z,99600
2018-05-14T02:31:32.734Z,99600
2018-05-14T02:34:09.505Z,99592
2018-05-14T02:36:47.329Z,99596
2018-05-14T02:39:25.148Z,99593
2018-05-14T02:42:04.265Z,99597
2018-05-14T02:44:40.512Z,99595
2018-05-14T02:47:17.248Z,99603
2018-05-14T02:49:53.535Z,99608
2018-05-14T02:52:29.917Z,99605
2018-05-14T02:55:05.976Z,99603
2018-05-14T02:57:43.045Z,99604
2018-05-14T03:00:19.908Z,99604
2018-05-14T03:02:56.691Z,99604
2018-05-14T03:05:33.561Z,99605
2018-05-14T03:08:11.359Z,99601
2018-05-14T03:10:48.747Z,99603
2018-05-14T03:13:26.409Z,99601
2018-05-14T03:16:03.873Z,99603
2018-05-14T03:18:40.400Z,99608
2018-05-14T03:21:17.594Z,99602
2018-05-14T03:23:55.412Z,99607
2018-05-14T03:26:33.454Z,99609
2018-05-14T03:29:11.528Z,99614
2018-05-14T03:31:48.588Z,99624
2018-05-14T03:34:26.477Z,99625
2018-05-14T03:37:03.970Z,99627
2018-05-14T03:39:41.771Z,99628
2018-05-14T03:42:19.939Z,99623
2018-05-14T03:44:56.781Z,99626
2018-05-14T03:47:34.780Z,99627
2018-05-14T03:50:12.111Z,99627
2018-05-14T03:52:49.969Z,99627
2018-05-14T03:55:26.168Z,99625
2018-05-14T03:58:04.631Z,99626
2018-05-14T04:00:58.350Z,99628
2018-05-14T04:03:52.833Z,99625
2018-05-14T04:06:44.433Z,99634
2018-05-14T04:09:21.708Z,99635
2018-05-14T04:11:58.212Z,99635
2018-05-14T04:14:34.775Z,99630
2018-05-14T04:17:13.802Z,99630
2018-05-14T04:19:51.061Z,99633
2018-05-14T04:22:29.855Z,99642
2018-05-14T04:25:07.445Z,99638
2018-05-14T04:27:44.137Z,99642
2018-05-14T04:30:21.078Z,99648
2018-05-14T04:32:57.874Z,99641
2018-05-14T04:35:36.910Z,99643
2018-05-14T04:38:15.270Z,99648
2018-05-14T04:40:52.406Z,99649
2018-05-14T04:43:31.101Z,99652
2018-05-14T04:46:08.236Z,99654
2018-05-14T04:48:45.438Z,99655
2018-05-14T04:51:22.485Z,99650
2018-05-14T04:53:59.817Z,99646
2018-05-14T04:56:36.752Z,99648
2018-05-14T04:59:13.668Z,99647
2018-05-14T05:01:50.740Z,99649
2018-05-14T05:04:27.996Z,99646
2018-05-14T05:07:05.919Z,99645
2018-05-14T05:09:42.904Z,99647
2018-05-14T05:12:19.336Z,99650
2018-05-14T05:14:56.539Z,99655
2018-05-14T05:17:33.334Z,99653
2018-05-14T05:20:11.542Z,99660
2018-05-14T05:22:48.800Z,99660
2018-05-14T05:25:25.390Z,99668
2018-05-14T05:28:02.544Z,99660
2018-05-14T05:30:41.913Z,99662
2018-05-14T05:33:18.667Z,99663
2018-05-14T05:35:56.693Z,99666
2018-05-14T05:38:34.508Z,99661
2018-05-14T05:41:12.804Z,99653
2018-05-14T05:43:50.369Z,99651
2018-05-14T05:46:27.664Z,99649
2018-05-14T05:49:04.619Z,99657
2018-05-14T05:51:43.162Z,99661
2018-05-14T05:54:20.289Z,99658
2018-05-14T05:56:58.084Z,99661
2018-05-14T05:59:36.592Z,99657
2018-05-14T06:02:12.736Z,99656
2018-05-14T06:04:50.209Z,99654
2018-05-14T06:07:27.512Z,99655
2018-05-14T06:10:04.228Z,99659
2018-05-14T06:12:41.389Z,99657
2018-05-14T06:15:18.113Z,99659
2018-05-14T06:17:56.692Z,99662
2018-05-14T06:20:33.141Z,99654
2018-05-14T06:23:11.557Z,99658
2018-05-14T06:25:49.748Z,99658
2018-05-14T06:28:27.044Z,99660
2018-05-14T06:31:05.256Z,99659
2018-05-14T06:33:42.236Z,99656
2018-05-14T06:36:19.864Z,99654
2018-05-14T06:38:57.768Z,99658
2018-05-14T06:41:34.731Z,99650
2018-05-14T06:44:11.183Z,99649
2018-05-14T06:46:47.749Z,99655
2018-05-14T06:49:25.327Z,99649
2018-05-14T06:52:03.645Z,99654
2018-05-14T06:54:39.784Z,99654
2018-05-14T06:57:17.824Z,99655
2018-05-14T06:59:55.965Z,99657
2018-05-14T07:02:32.705Z,99650
2018-05-14T07:05:08.864Z,99648
2018-05-14T07:07:46.392Z,99648
2018-05-14T07:10:24.858Z,99643
2018-05-14T07:13:02.127Z,99640
2018-05-14T07:15:40.402Z,99644
2018-05-14T07:18:17.091Z,99634
2018-05-14T07:20:53.707Z,99638
2018-05-14T07:23:31.034Z,99641
2018-05-14T07:26:08.661Z,99634
2018-05-14T07:28:45.607Z,99644
2018-05-14T07:31:23.894Z,99639
2018-05-14T07:34:01.061Z,99636
2018-05-14T07:36:38.669Z,99636
2018-05-14T07:39:17.016Z,99633
2018-05-14T07:41:53.745Z,99635
2018-05-14T07:44:30.405Z,99646
2018-05-14T07:47:06.794Z,99640
2018-05-14T07:49:44.489Z,99642
2018-05-14T07:52:22.075Z,99653
2018-05-14T07:54:59.216Z,99648
2018-05-14T07:57:36.099Z,99651
2018-05-14T08:00:13.977Z,99653
2018-05-14T08:02:52.840Z,99651
2018-05-14T08:05:30.055Z,99648
2018-05-14T08:08:08.709Z,99649
2018-05-14T08:10:45.828Z,99649
2018-05-14T08:13:23.737Z,99656
2018-05-14T08:15:59.969Z,99653
2018-05-14T08:18:36.704Z,99653
2018-05-14T08:21:13.732Z,99652
2018-05-14T08:23:50.420Z,99660
2018-05-14T08:26:27.909Z,99657
2018-05-14T08:29:05.646Z,99663
2018-05-14T08:31:42.621Z,99670
2018-05-14T08:34:19.551Z,99669
2018-05-14T08:36:57.301Z,99677
2018-05-14T08:39:34.464Z,99668
2018-05-14T08:42:11.608Z,99673
2018-05-14T08:44:49.419Z,99672
2018-05-14T08:47:26.647Z,99671
2018-05-14T08:50:03.588Z,99670
2018-05-14T08:52:40.256Z,99671
2018-05-14T08:55:17.646Z,99679
2018-05-14T08:57:55.648Z,99673
2018-05-14T09:00:32.464Z,99681
2018-05-14T09:03:09.448Z,99677
2018-05-14T09:05:46.425Z,99677
2018-05-14T09:08:23.961Z,99680
2018-05-14T09:11:02.089Z,99680
2018-05-14T09:13:40.430Z,99680
2018-05-14T09:16:17.106Z,99689
2018-05-14T09:18:54.717Z,99683
2018-05-14T09:21:32.279Z,99689
2018-05-14T09:24:09.634Z,99692
2018-05-14T09:26:47.435Z,99702
2018-05-14T09:29:24.448Z,99695
2018-05-14T09:32:01.421Z,99695
2018-05-14T09:34:39.468Z,99701
2018-05-14T09:37:16.956Z,99697
2018-05-14T09:39:52.957Z,99702
2018-05-14T09:42:29.641Z,99703
2018-05-14T09:45:07.368Z,99698
2018-05-14T09:47:43.929Z,99696
2018-05-14T09:50:20.309Z,99696
2018-05-14T09:52:57.157Z,99703
2018-05-14T09:55:34.261Z,99697
2018-05-14T09:58:12.134Z,99699
2018-05-14T10:00:48.055Z,99709
2018-05-14T10:03:24.442Z,99711
2018-05-14T10:06:00.857Z,99711
2018-05-14T10:08:38.642Z,99701
2018-05-14T10:11:15.925Z,99708
2018-05-14T10:13:54.537Z,99708
2018-05-14T10:16:32.865Z,99712
2018-05-14T10:19:10.069Z,99712
2018-05-14T10:21:47.753Z,99713
2018-05-14T10:24:24.650Z,99717
2018-05-14T10:27:01.591Z,99708
2018-05-14T10:29:40.183Z,99713
2018-05-14T10:32:18.536Z,99715
2018-05-14T10:34:56.737Z,99710
2018-05-14T10:37:33.363Z,99711
2018-05-14T10:40:09.982Z,99719
2018-05-14T10:42:47.571Z,99709
2018-05-14T10:45:23.991Z,99720
2018-05-14T10:48:01.522Z,99709
2018-05-14T10:50:39.090Z,99712
2018-05-14T10:53:15.782Z,99713
2018-05-14T10:55:52.761Z,99717
2018-05-14T10:58:30.669Z,99718
2018-05-14T11:01:07.929Z,99708
2018-05-14T11:03:46.526Z,99724
2018-05-14T11:06:23.141Z,99714
2018-05-14T11:09:00.125Z,99718
2018-05-14T11:11:37.412Z,99709
2018-05-14T11:14:13.564Z,99719
2018-05-14T11:16:50.920Z,99728
2018-05-14T11:19:28.965Z,99726
2018-05-14T11:22:05.941Z,99722
2018-05-14T11:24:43.244Z,99726
2018-05-14T11:27:20.047Z,99722
2018-05-14T11:29:56.882Z,99717
2018-05-14T11:32:33.883Z,99718
2018-05-14T11:35:11.869Z,99705
2018-05-14T11:37:49.984Z,99706
2018-05-14T11:40:26.186Z,99707
2018-05-14T11:43:02.916Z,99707
2018-05-14T11:45:40.122Z,99712
2018-05-14T11:48:16.656Z,99712
2018-05-14T11:50:53.739Z,99708
2018-05-14T11:53:31.238Z,99710
2018-05-14T11:56:08.633Z,99721
2018-05-14T11:58:46.424Z,99715
2018-05-14T12:01:25.674Z,99714
2018-05-14T12:04:02.681Z,99708
2018-05-14T12:06:39.821Z,99708
2018-05-14T12:09:16.269Z,99705
2018-05-14T12:11:55.450Z,99701
2018-05-14T12:14:33.012Z,99697
2018-05-14T12:17:10.509Z,99696
2018-05-14T12:19:47.587Z,99695
2018-05-14T12:22:24.791Z,99698
2018-05-14T12:25:02.305Z,99702
2018-05-14T12:27:38.977Z,99699
2018-05-14T12:30:16.609Z,99696
2018-05-14T12:32:53.113Z,99701
2018-05-14T12:35:29.349Z,99701
2018-05-14T12:38:05.283Z,99694
2018-05-14T12:40:42.751Z,99699
2018-05-14T12:43:18.716Z,99702
2018-05-14T12:45:56.332Z,99699
2018-05-14T12:48:34.278Z,99703
2018-05-14T12:51:11.840Z,99697
2018-05-14T12:53:49.757Z,99702
2018-05-14T12:56:27.033Z,99700
2018-05-14T12:59:04.227Z,99698
2018-05-14T13:01:41.927Z,99686
2018-05-14T13:04:18.609Z,99696
2018-05-14T13:06:55.663Z,99687
2018-05-14T13:09:34.313Z,99696
2018-05-14T13:12:12.317Z,99690
2018-05-14T13:14:49.279Z,99690
2018-05-14T13:17:25.852Z,99687
2018-05-14T13:20:03.509Z,99688
2018-05-14T13:22:40.614Z,99686
2018-05-14T13:25:18.396Z,99678
2018-05-14T13:27:55.722Z,99675
2018-05-14T13:30:33.409Z,99671
2018-05-14T13:33:10.316Z,99670
2018-05-14T13:35:47.777Z,99678
2018-05-14T13:38:24.072Z,99675
2018-05-14T13:41:02.991Z,99669
2018-05-14T13:43:39.113Z,99676
2018-05-14T13:46:17.025Z,99683
2018-05-14T13:48:55.329Z,99687
2018-05-14T13:51:32.703Z,99686
2018-05-14T13:54:10.430Z,99689
2018-05-14T13:56:46.757Z,99688
2018-05-14T13:59:24.997Z,99691
2018-05-14T14:02:02.053Z,99688
2018-05-14T14:04:39.860Z,99681
2018-05-14T14:07:17.476Z,99677
2018-05-14T14:09:54.153Z,99680
2018-05-14T14:12:30.765Z,99677
2018-05-14T14:15:10.106Z,99678
2018-05-14T14:17:46.869Z,99685
2018-05-14T14:20:24.821Z,99671
2018-05-14T14:23:01.205Z,99673
2018-05-14T14:25:38.199Z,99670
2018-05-14T14:28:15.972Z,99675
2018-05-14T14:30:52.626Z,99675
2018-05-14T14:33:29.040Z,99673
2018-05-14T14:36:07.015Z,99671
2018-05-14T14:38:44.146Z,99671
2018-05-14T14:41:21.610Z,99669
2018-05-14T14:43:59.057Z,99663
2018-05-14T14:46:37.225Z,99658
2018-05-14T14:49:14.324Z,99662
2018-05-14T14:51:51.687Z,99670
2018-05-14T14:54:28.016Z,99668
2018-05-14T14:57:04.234Z,99667
2018-05-14T14:59:41.602Z,99666
2018-05-14T15:02:18.582Z,99669
2018-05-14T15:04:55.199Z,99668
2018-05-14T15:07:31.403Z,99667
2018-05-14T15:10:07.712Z,99662
2018-05-14T15:12:44.790Z,99660
2018-05-14T15:15:21.421Z,99652
2018-05-14T15:17:59.308Z,99658
2018-05-14T15:20:36.292Z,99664
2018-05-14T15:23:14.506Z,99663
2018-05-14T15:25:50.969Z,99650
2018-05-14T15:28:28.812Z,99652
2018-05-14T15:31:05.127Z,99646
2018-05-14T15:33:41.934Z,99649
2018-05-14T15:36:19.105Z,99654
2018-05-14T15:38:57.013Z,99665
2018-05-14T15:41:33.717Z,99664
2018-05-14T15:44:11.981Z,99670
2018-05-14T15:46:49.802Z,99665
2018-05-14T15:49:26.773Z,99663
2018-05-14T15:52:03.737Z,99664
2018-05-14T15:54:40.779Z,99665
2018-05-14T15:57:17.769Z,99662
2018-05-14T15:59:55.603Z,99668
2018-05-14T16:02:34.123Z,99666
2018-05-14T16:05:12.013Z,99680
2018-05-14T16:07:48.524Z,99673
2018-05-14T16:10:25.945Z,99685
2018-05-14T16:13:02.932Z,99680
2018-05-14T16:15:41.451Z,99670
2018-05-14T16:18:18.012Z,99683
2018-05-14T16:20:55.097Z,99684
2018-05-14T16:23:33.013Z,99691
2018-05-14T16:26:09.978Z,99688
2018-05-14T16:28:46.902Z,99684
2018-05-14T16:31:23.969Z,99691
2018-05-14T16:34:00.642Z,99693
2018-05-14T16:36:38.280Z,99691
2018-05-14T16:39:15.824Z,99689
2018-05-14T16:41:52.449Z,99686
2018-05-14T16:44:30.360Z,99697
2018-05-14T16:47:07.981Z,99701
2018-05-14T16:49:44.626Z,99701
2018-05-14T16:52:20.670Z,99695
2018-05-14T16:54:59.186Z,99703
2018-05-14T16:57:36.595Z,99702
2018-05-14T17:00:13.055Z,99712
2018-05-14T17:02:49.129Z,99707
2018-05-14T17:05:25.961Z,99712
2018-05-14T17:08:02.138Z,99710
2018-05-14T17:10:39.377Z,99713
2018-05-14T17:13:16.094Z,99715
2018-05-14T17:15:52.929Z,99718
2018-05-14T17:18:29.503Z,99717
2018-05-14T17:21:08.988Z,99714
2018-05-14T17:23:45.064Z,99722
2018-05-14T17:26:22.302Z,99722
2018-05-14T17:28:58.928Z,99719
2018-05-14T17:31:35.772Z,99724
2018-05-14T17:34:12.491Z,99731
2018-05-14T17:36:49.707Z,99730
2018-05-14T17:39:27.460Z,99739
2018-05-14T17:42:03.913Z,99738
2018-05-14T17:44:41.289Z,99736
2018-05-14T17:47:18.146Z,99744
2018-05-14T17:49:56.524Z,99750
2018-05-14T17:52:32.195Z,99742
2018-05-14T17:55:08.853Z,99744
2018-05-14T17:57:46.140Z,99748
2018-05-14T18:00:22.805Z,99752
2018-05-14T18:02:59.494Z,99747
2018-05-14T18:05:36.541Z,99748
2018-05-14T18:08:12.825Z,99746
2018-05-14T18:10:49.876Z,99748
2018-05-14T18:13:28.362Z,99753
2018-05-14T18:16:05.977Z,99755
2018-05-14T18:18:43.674Z,99758
2018-05-14T18:21:27.086Z,99759
2018-05-14T18:24:03.305Z,99765
2018-05-14T18:26:45.385Z,99766
2018-05-14T18:29:26.988Z,99769
2018-05-14T18:32:04.680Z,99774
2018-05-14T18:34:43.713Z,99772
2018-05-14T18:37:20.277Z,99773
2018-05-14T18:39:57.182Z,99773
2018-05-14T18:42:34.172Z,99773
2018-05-14T18:45:10.645Z,99782
2018-05-14T18:47:48.713Z,99781
2018-05-14T18:50:25.185Z,99785
2018-05-14T18:53:03.045Z,99788
2018-05-14T18:55:40.339Z,99794
2018-05-14T18:58:17.729Z,99794
2018-05-14T19:00:54.505Z,99802
2018-05-14T19:03:33.294Z,99808
2018-05-14T19:06:10.256Z,99813
2018-05-14T19:08:46.313Z,99814
2018-05-14T19:11:27.825Z,99819
2018-05-14T19:14:03.781Z,99817
2018-05-14T19:16:46.994Z,99817
2018-05-14T19:19:25.154Z,99828
2018-05-14T19:22:03.465Z,99829
2018-05-14T19:24:40.055Z,99834
2018-05-14T19:27:16.872Z,99838
2018-05-14T19:29:55.137Z,99836
2018-05-14T19:32:32.585Z,99836
2018-05-14T19:35:14.712Z,99831
2018-05-14T19:37:51.932Z,99835
2018-05-14T19:40:34.842Z,99838
2018-05-14T19:43:12.965Z,99843
2018-05-14T19:45:49.018Z,99845
2018-05-14T19:48:27.265Z,99849
2018-05-14T19:51:06.701Z,99847
2018-05-14T19:53:43.807Z,99848
2018-05-14T19:56:20.035Z,99851
2018-05-14T19:58:56.250Z,99844
2018-05-14T20:01:35.645Z,99847
2018-05-14T20:04:12.583Z,99847
2018-05-14T20:06:51.067Z,99850
2018-05-14T20:09:27.643Z,99851
2018-05-14T20:12:04.185Z,99855
2018-05-14T20:14:42.549Z,99861
2018-05-14T20:17:19.945Z,99859
2018-05-14T20:19:56.757Z,99863
2018-05-14T20:22:34.954Z,99867
2018-05-14T20:25:13.364Z,99864
2018-05-14T20:27:49.511Z,99865
2018-05-14T20:30:26.630Z,99868
2018-05-14T20:33:04.589Z,99872
2018-05-14T20:35:41.611Z,99870
2018-05-14T20:38:19.350Z,99870
2018-05-14T20:40:57.786Z,99879
2018-05-14T20:43:36.604Z,99878
2018-05-14T20:46:13.368Z,99888
2018-05-14T20:48:50.020Z,99885
2018-05-14T20:51:27.664Z,99891
2018-05-14T20:54:03.605Z,99897
2018-05-14T20:56:40.367Z,99888
2018-05-14T20:59:18.095Z,99891
2018-05-14T21:01:57.573Z,99899
2018-05-14T21:04:33.565Z,99898
2018-05-14T21:07:11.344Z,99897
2018-05-14T21:09:48.038Z,99899
2018-05-14T21:12:25.121Z,99900
2018-05-14T21:15:02.061Z,99901
2018-05-14T21:17:38.673Z,99898
2018-05-14T21:20:16.055Z,99907
2018-05-14T21:22:54.619Z,99901
2018-05-14T21:25:32.339Z,99901
2018-05-14T21:28:09.365Z,99907
2018-05-14T21:30:45.850Z,99903
2018-05-14T21:33:24.693Z,99910
2018-05-14T21:36:03.274Z,99909
2018-05-14T21:38:39.998Z,99907
2018-05-14T21:41:17.286Z,99908
2018-05-14T21:43:54.294Z,99907
2018-05-14T21:46:32.169Z,99906
2018-05-14T21:49:08.281Z,99907
2018-05-14T21:51:45.815Z,99907
2018-05-14T21:54:22.507Z,99910
2018-05-14T21:56:59.797Z,99913
2018-05-14T21:59:36.443Z,99914
2018-05-14T22:02:12.326Z,99915
2018-05-14T22:04:48.982Z,99918
2018-05-14T22:07:25.863Z,99915
2018-05-14T22:10:02.946Z,99914
2018-05-14T22:12:40.455Z,99919
2018-05-14T22:15:17.376Z,99913
2018-05-14T22:17:56.671Z,99916
2018-05-14T22:20:33.329Z,99916
2018-05-14T22:23:13.532Z,99919
2018-05-14T22:25:52.085Z,99917
2018-05-14T22:28:28.573Z,99920
2018-05-14T22:31:06.340Z,99919
2018-05-14T22:33:43.036Z,99914
2018-05-14T22:36:20.242Z,99912
2018-05-14T22:38:56.808Z,99908
2018-05-14T22:41:35.185Z,99913
2018-05-14T22:44:12.507Z,99915
2018-05-14T22:46:49.493Z,99909
2018-05-14T22:49:26.330Z,99910
2018-05-14T22:52:03.393Z,99910
2018-05-14T22:54:40.428Z,99913
2018-05-14T22:57:17.957Z,99911
2018-05-14T22:59:54.702Z,99908
2018-05-14T23:02:32.363Z,99911
2018-05-14T23:05:09.873Z,99917
2018-05-14T23:07:48.086Z,99919
2018-05-14T23:10:24.565Z,99923
2018-05-14T23:13:02.022Z,99930
2018-05-14T23:15:38.997Z,99927
2018-05-14T23:18:17.825Z,99931
2018-05-14T23:20:55.421Z,99926
2018-05-14T23:23:32.703Z,99928
2018-05-14T23:26:08.902Z,99925
2018-05-14T23:28:47.284Z,99927
2018-05-14T23:31:24.229Z,99927
2018-05-14T23:34:02.456Z,99932
2018-05-14T23:36:39.641Z,99929
2018-05-14T23:39:16.456Z,99926
2018-05-14T23:41:53.108Z,99923
2018-05-14T23:44:30.862Z,99914
2018-05-14T23:47:07.996Z,99912
2018-05-14T23:49:44.781Z,99914
2018-05-14T23:52:22.260Z,99911
2018-05-14T23:54:59.450Z,99912
2018-05-14T23:57:36.056Z,99911
